Terminal Aerodrome Forecast
Issued by NWS Goodland, KS

Home | Current Version | Previous Version | Text Only | Print | Product List | Glossary On
Versions: 1 2 3 4 5 6 7 8 9 10 11 12 13 14 15 16 17 18 19 20 21 22 23 24 25 26 27 28 29
000
FTUS43 KGLD 261023 AAA
TAFGLD
TAF AMD
KGLD 261023Z 2610/2706 VRB05KT P6SM VCTS SCT015CB BKN070
      TEMPO 2611/2614 BKN015CB
     FM261400 02011KT P6SM BKN035
     FM262000 04012KT P6SM VCTS SCT070CB BKN150
     FM270100 03015KT P6SM -TSRA BKN070CB=

USA.gov is the U.S. government's official web portal to all federal, state and local government web resources and services.